Anjeliersgracht — PCGQ — position and weather

sailwx.info

Track history (hours):
 
Tides and Currents Weather Stations Pressure Air Temp Water Temp Dewpoint Dewpoint Depression Visibility Wind Speed Wind Dir Waves Ship Positions

Anjeliersgracht

Last reported at 2016-Sep-29 23:33 UTC. Time now 2016-Sep-30 01:36 UTC.
Position N 49°50' W 002°47'.

Length 130 m; beam 19 m; draft 9 m.

Type: Cargo ship. MMSI: 244716000.

Date/timePositionNaut miles runAvg speedWind from/ knotsBaromVisibWave heightAir tempDewpointWater temp
2016-Sep-29 23:33N 49°50' W 002°47'2411.7
2016-Sep-29 21:30N 49°39' W 003°20'9313.3
2016-Sep-29 14:29N 48°52' W 005°23'6911.1
2016-Sep-29 08:17N 47°43' W 005°13'1013.3
2016-Sep-29 07:33N 47°34' W 005°07'9112.7
2016-Sep-29 00:25N 46°14' W 004°04'  
2016-Sep-24 19:23N 46°41' W 004°32'1213.2
2016-Sep-24 18:28N 46°51' W 004°40'1212.8
2016-Sep-24 17:33N 47°02' W 004°49'1313.0
2016-Sep-24 16:33N 47°13' W 004°58'2713.4
2016-Sep-24 14:34N 47°37' W 005°16'110 9.9
2016-Sep-24 03:21N 49°24' W 004°33'1113.8
2016-Sep-24 02:33N 49°29' W 004°18'1313.4
2016-Sep-24 01:33N 49°35' W 004°00'1912.7
2016-Sep-24 00:03N 49°45' W 003°35'13114.7
2016-Sep-23 15:09N 50°27' W 000°22'2113.0
2016-Sep-23 13:31N 50°33' E 000°10'5614.2
2016-Sep-23 09:33N 51°03' E 001°25'3612.1
2016-Sep-23 06:33N 51°21' E 002°15'2512.4
2016-Sep-23 04:34N 51°23' E 002°54'1211.9
2016-Sep-23 03:34N 51°25' E 003°13'1212.3
2016-Sep-23 02:34N 51°26' E 003°33'9 8.9
2016-Sep-23 01:33N 51°22' E 003°46'1110.6
2016-Sep-23 00:33N 51°24' E 004°02'1010.1
2016-Sep-22 23:33N 51°21' E 004°17'5 1.7
2016-Sep-22 20:31N 51°17' E 004°23'0 0.0
2016-Sep-22 12:34N 51°17' E 004°23'0 0.0
2016-Sep-22 04:33N 51°17' E 004°23'0 0.0
2016-Sep-22 03:33N 51°17' E 004°23'0 0.0
2016-Sep-22 00:33N 51°17' E 004°23'0 0.0
2016-Sep-21 23:33N 51°17' E 004°23'0 0.0
2016-Sep-21 22:27N 51°17' E 004°23'0 0.0
2016-Sep-21 19:33N 51°17' E 004°23'0 0.0
2016-Sep-21 16:33N 51°17' E 004°23'0 0.0
2016-Sep-21 09:33N 51°17' E 004°23'0 0.0
2016-Sep-21 08:33N 51°17' E 004°23'0 0.0
2016-Sep-21 05:32N 51°17' E 004°23'0 0.0
2016-Sep-21 03:32N 51°17' E 004°23'0 0.0
2016-Sep-21 02:32N 51°17' E 004°23'0 0.0
2016-Sep-20 17:32N 51°17' E 004°23'0 0.0
2016-Sep-20 14:32N 51°17' E 004°23'0 0.0
2016-Sep-20 13:32N 51°17' E 004°23'0 0.0
2016-Sep-20 10:32N 51°17' E 004°23'0 0.0
2016-Sep-20 08:32N 51°17' E 004°23'0 0.0
2016-Sep-20 07:32N 51°17' E 004°23'0 0.0
2016-Sep-20 06:32N 51°17' E 004°23'0 0.0
2016-Sep-20 02:32N 51°17' E 004°23'  
Track history (hours):
 
Tides and Currents Weather Stations Pressure Air Temp Water Temp Dewpoint Dewpoint Depression Visibility Wind Speed Wind Dir Waves Ship Positions

Anjeliersgracht

Last reported at 2016-Sep-29 23:33 UTC. Time now 2016-Sep-30 01:36 UTC.
Position N 49°50' W 002°47'.

Length 130 m; beam 19 m; draft 9 m.

Type: Cargo ship. MMSI: 244716000.

Date/timePositionNaut miles runAvg speedWind from/ knotsBaromVisibWave heightAir tempDewpointWater temp
2016-Sep-29 23:33N 49°50' W 002°47'2411.7
2016-Sep-29 21:30N 49°39' W 003°20'9313.3
2016-Sep-29 14:29N 48°52' W 005°23'6911.1
2016-Sep-29 08:17N 47°43' W 005°13'1013.3
2016-Sep-29 07:33N 47°34' W 005°07'9112.7
2016-Sep-29 00:25N 46°14' W 004°04'  
2016-Sep-24 19:23N 46°41' W 004°32'1213.2
2016-Sep-24 18:28N 46°51' W 004°40'1212.8
2016-Sep-24 17:33N 47°02' W 004°49'1313.0
2016-Sep-24 16:33N 47°13' W 004°58'2713.4
2016-Sep-24 14:34N 47°37' W 005°16'110 9.9
2016-Sep-24 03:21N 49°24' W 004°33'1113.8
2016-Sep-24 02:33N 49°29' W 004°18'1313.4
2016-Sep-24 01:33N 49°35' W 004°00'1912.7
2016-Sep-24 00:03N 49°45' W 003°35'13114.7
2016-Sep-23 15:09N 50°27' W 000°22'2113.0
2016-Sep-23 13:31N 50°33' E 000°10'5614.2
2016-Sep-23 09:33N 51°03' E 001°25'3612.1
2016-Sep-23 06:33N 51°21' E 002°15'2512.4
2016-Sep-23 04:34N 51°23' E 002°54'1211.9
2016-Sep-23 03:34N 51°25' E 003°13'1212.3
2016-Sep-23 02:34N 51°26' E 003°33'9 8.9
2016-Sep-23 01:33N 51°22' E 003°46'1110.6
2016-Sep-23 00:33N 51°24' E 004°02'1010.1
2016-Sep-22 23:33N 51°21' E 004°17'5 1.7
2016-Sep-22 20:31N 51°17' E 004°23'0 0.0
2016-Sep-22 12:34N 51°17' E 004°23'0 0.0
2016-Sep-22 04:33N 51°17' E 004°23'0 0.0
2016-Sep-22 03:33N 51°17' E 004°23'0 0.0
2016-Sep-22 00:33N 51°17' E 004°23'0 0.0
2016-Sep-21 23:33N 51°17' E 004°23'0 0.0
2016-Sep-21 22:27N 51°17' E 004°23'0 0.0
2016-Sep-21 19:33N 51°17' E 004°23'0 0.0
2016-Sep-21 16:33N 51°17' E 004°23'0 0.0
2016-Sep-21 09:33N 51°17' E 004°23'0 0.0
2016-Sep-21 08:33N 51°17' E 004°23'0 0.0
2016-Sep-21 05:32N 51°17' E 004°23'0 0.0
2016-Sep-21 03:32N 51°17' E 004°23'0 0.0
2016-Sep-21 02:32N 51°17' E 004°23'0 0.0
2016-Sep-20 17:32N 51°17' E 004°23'0 0.0
2016-Sep-20 14:32N 51°17' E 004°23'0 0.0
2016-Sep-20 13:32N 51°17' E 004°23'0 0.0
2016-Sep-20 10:32N 51°17' E 004°23'0 0.0
2016-Sep-20 08:32N 51°17' E 004°23'0 0.0
2016-Sep-20 07:32N 51°17' E 004°23'0 0.0
2016-Sep-20 06:32N 51°17' E 004°23'0 0.0
2016-Sep-20 02:32N 51°17' E 004°23'  

Dump ship's entire track history